createdAt,value
2018-02-14T00:01:10.019Z,61.40
2018-02-14T00:03:37.043Z,60.00
2018-02-14T00:06:03.339Z,61.10
2018-02-14T00:08:29.650Z,60.90
2018-02-14T00:10:55.959Z,61.50
2018-02-14T00:13:22.229Z,61.50
2018-02-14T00:15:48.526Z,62.30
2018-02-14T00:18:15.564Z,61.60
2018-02-14T00:20:42.614Z,62.50
2018-02-14T00:23:08.872Z,61.50
2018-02-14T00:25:35.183Z,62.00
2018-02-14T00:28:02.217Z,62.30
2018-02-14T00:30:28.523Z,62.50
2018-02-14T00:32:54.799Z,62.40
2018-02-14T00:35:21.111Z,61.90
2018-02-14T00:37:47.379Z,61.90
2018-02-14T00:40:13.662Z,62.20
2018-02-14T00:42:39.956Z,62.60
2018-02-14T00:45:06.224Z,62.60
2018-02-14T00:47:32.516Z,62.60
2018-02-14T00:49:58.794Z,62.80
2018-02-14T00:52:25.079Z,62.90
2018-02-14T00:54:51.375Z,63.30
2018-02-14T00:57:17.663Z,63.60
2018-02-14T00:59:43.956Z,63.70
2018-02-14T01:02:10.235Z,63.50
2018-02-14T01:04:36.540Z,63.80
2018-02-14T01:07:02.820Z,64.10
2018-02-14T01:09:29.126Z,64.00
2018-02-14T01:11:55.435Z,63.70
2018-02-14T01:14:21.716Z,64.20
2018-02-14T01:16:48.020Z,64.20
2018-02-14T01:19:16.164Z,64.20
2018-02-14T01:21:48.571Z,64.60
2018-02-14T01:24:14.872Z,64.30
2018-02-14T01:26:41.170Z,64.60
2018-02-14T01:29:07.432Z,63.90
2018-02-14T01:31:33.695Z,64.90
2018-02-14T01:34:00.754Z,65.20
2018-02-14T01:36:27.776Z,65.30
2018-02-14T01:38:54.057Z,65.20
2018-02-14T01:41:20.332Z,65.30
2018-02-14T01:43:46.671Z,65.10
2018-02-14T01:46:13.698Z,65.70
2018-02-14T01:48:40.763Z,65.70
2018-02-14T01:51:07.097Z,65.80
2018-02-14T01:53:33.395Z,64.00
2018-02-14T01:55:59.699Z,65.80
2018-02-14T01:58:26.611Z,65.60
2018-02-14T02:00:52.891Z,65.60
2018-02-14T02:03:19.161Z,66.00
2018-02-14T02:05:45.419Z,65.60
2018-02-14T02:08:11.807Z,66.00
2018-02-14T02:10:38.095Z,66.00
2018-02-14T02:13:04.390Z,66.30
2018-02-14T02:15:31.405Z,65.90
2018-02-14T02:17:57.688Z,66.30
2018-02-14T02:20:24.006Z,66.50
2018-02-14T02:22:51.037Z,66.70
2018-02-14T02:25:17.319Z,66.90
2018-02-14T02:27:43.596Z,67.00
2018-02-14T02:30:09.887Z,67.10
2018-02-14T02:32:36.162Z,66.60
2018-02-14T02:35:02.466Z,67.10
2018-02-14T02:37:29.660Z,67.50
2018-02-14T02:40:08.980Z,67.40
2018-02-14T02:42:35.303Z,67.50
2018-02-14T02:45:01.577Z,67.70
2018-02-14T02:47:27.867Z,67.50
2018-02-14T02:49:54.151Z,67.40
2018-02-14T02:52:20.460Z,67.60
2018-02-14T02:54:46.789Z,67.80
2018-02-14T02:57:13.095Z,67.80
2018-02-14T02:59:39.380Z,67.90
2018-02-14T03:02:05.735Z,68.20
2018-02-14T03:04:32.063Z,68.40
2018-02-14T03:06:58.360Z,68.30
2018-02-14T03:09:24.690Z,68.60
2018-02-14T03:11:50.972Z,68.40
2018-02-14T03:14:17.266Z,66.80
2018-02-14T03:16:43.571Z,68.20
2018-02-14T03:19:09.845Z,67.00
2018-02-14T03:21:36.122Z,68.30
2018-02-14T03:24:02.447Z,68.30
2018-02-14T03:26:29.480Z,66.60
2018-02-14T03:28:56.533Z,68.40
2018-02-14T03:31:23.538Z,68.10
2018-02-14T03:33:49.819Z,68.10
2018-02-14T03:36:16.842Z,68.20
2018-02-14T03:38:43.116Z,66.50
2018-02-14T03:41:09.412Z,68.60
2018-02-14T03:43:35.742Z,67.40
2018-02-14T03:46:02.815Z,68.50
2018-02-14T03:48:29.093Z,68.50
2018-02-14T03:50:55.411Z,68.70
2018-02-14T03:53:21.688Z,68.80
2018-02-14T03:55:48.734Z,69.20
2018-02-14T03:58:15.788Z,68.90
2018-02-14T04:00:42.095Z,69.00
2018-02-14T04:03:08.371Z,69.00
2018-02-14T04:05:34.653Z,69.60
2018-02-14T04:08:00.940Z,68.80
2018-02-14T04:10:27.223Z,68.90
2018-02-14T04:12:53.498Z,69.10
2018-02-14T04:15:19.776Z,69.10
2018-02-14T04:17:46.070Z,68.90
2018-02-14T04:20:12.385Z,69.70
2018-02-14T04:22:38.663Z,69.50
2018-02-14T04:25:05.001Z,69.80
2018-02-14T04:27:32.052Z,69.50
2018-02-14T04:29:58.377Z,69.60
2018-02-14T04:32:24.651Z,69.80
2018-02-14T04:34:50.920Z,69.60
2018-02-14T04:37:17.199Z,70.20
2018-02-14T04:39:43.468Z,70.10
2018-02-14T04:42:09.791Z,70.20
2018-02-14T04:44:36.091Z,70.50
2018-02-14T04:47:02.748Z,70.50
2018-02-14T04:49:29.027Z,70.50
2018-02-14T04:51:55.322Z,70.90
2018-02-14T04:54:21.615Z,70.90
2018-02-14T04:56:47.899Z,68.90
2018-02-14T04:59:14.189Z,70.60
2018-02-14T05:01:40.472Z,70.50
2018-02-14T05:04:06.779Z,70.80
2018-02-14T05:06:33.107Z,70.50
2018-02-14T05:08:59.404Z,70.60
2018-02-14T05:11:25.731Z,70.60
2018-02-14T05:13:52.025Z,70.50
2018-02-14T05:16:19.065Z,70.80
2018-02-14T05:18:45.414Z,70.30
2018-02-14T05:21:12.451Z,71.00
2018-02-14T05:23:38.739Z,70.50
2018-02-14T05:26:05.010Z,70.90
2018-02-14T05:28:31.694Z,71.30
2018-02-14T05:30:58.700Z,71.40
2018-02-14T05:33:24.979Z,71.20
2018-02-14T05:35:51.296Z,71.50
2018-02-14T05:38:17.587Z,70.90
2018-02-14T05:40:43.868Z,70.90
2018-02-14T05:43:10.127Z,70.80
2018-02-14T05:45:36.451Z,70.60
2018-02-14T05:48:02.735Z,70.20
2018-02-14T05:50:29.761Z,70.50
2018-02-14T05:52:56.111Z,70.40
2018-02-14T05:55:23.135Z,70.40
2018-02-14T05:57:49.467Z,70.10
2018-02-14T06:00:15.747Z,70.60
2018-02-14T06:02:42.047Z,71.20
2018-02-14T06:05:09.067Z,71.90
2018-02-14T06:07:35.360Z,70.50
2018-02-14T06:10:01.655Z,72.00
2018-02-14T06:12:28.711Z,72.10
2018-02-14T06:14:54.993Z,72.20
2018-02-14T06:17:21.260Z,72.10
2018-02-14T06:19:48.306Z,72.60
2018-02-14T06:22:14.585Z,72.30
2018-02-14T06:24:40.906Z,73.00
2018-02-14T06:27:07.238Z,72.60
2018-02-14T06:29:33.514Z,72.20
2018-02-14T06:32:00.565Z,72.10
2018-02-14T06:34:26.887Z,71.90
2018-02-14T06:36:53.179Z,72.50
2018-02-14T06:39:19.478Z,72.20
2018-02-14T06:41:45.842Z,72.30
2018-02-14T06:44:12.122Z,72.40
2018-02-14T06:46:39.163Z,72.40
2018-02-14T06:49:05.489Z,72.40
2018-02-14T06:51:32.510Z,72.80
2018-02-14T06:53:58.806Z,72.80
2018-02-14T06:56:25.095Z,72.60
2018-02-14T06:58:51.412Z,72.30
2018-02-14T07:01:17.707Z,72.60
2018-02-14T07:03:43.999Z,72.60
2018-02-14T07:06:10.292Z,72.80
2018-02-14T07:08:36.583Z,72.50
2018-02-14T07:11:02.883Z,72.60
2018-02-14T07:13:29.936Z,72.10
2018-02-14T07:15:56.964Z,71.80
2018-02-14T07:18:23.335Z,71.80
2018-02-14T07:20:49.634Z,69.60
2018-02-14T07:26:11.363Z,64.70
2018-02-14T07:28:37.683Z,64.60
2018-02-14T07:31:03.974Z,62.50
2018-02-14T07:33:30.295Z,60.90
2018-02-14T07:35:56.608Z,61.90
2018-02-14T07:38:23.715Z,59.20
2018-02-14T07:40:49.996Z,59.40
2018-02-14T07:43:17.057Z,58.50
2018-02-14T07:45:43.342Z,58.80
2018-02-14T07:48:10.453Z,58.50
2018-02-14T07:50:36.748Z,58.80
2018-02-14T07:53:03.068Z,58.30
2018-02-14T07:55:29.421Z,57.70
2018-02-14T07:57:55.750Z,55.50
2018-02-14T08:00:22.808Z,53.30
2018-02-14T08:02:49.108Z,53.50
2018-02-14T08:05:15.397Z,51.70
2018-02-14T08:07:41.682Z,52.80
2018-02-14T08:10:08.731Z,52.80
2018-02-14T08:12:35.060Z,54.10
2018-02-14T08:15:02.104Z,52.70
2018-02-14T08:17:29.156Z,52.50
2018-02-14T08:19:56.189Z,53.80
2018-02-14T08:22:23.250Z,54.10
2018-02-14T08:24:50.277Z,54.30
2018-02-14T08:27:16.631Z,54.10
2018-02-14T08:29:43.643Z,54.00
2018-02-14T08:32:09.956Z,54.10
2018-02-14T08:34:36.263Z,53.00
2018-02-14T08:37:02.559Z,52.00
2018-02-14T08:39:29.636Z,51.50
2018-02-14T08:41:55.917Z,52.00
2018-02-14T08:44:22.232Z,53.10
2018-02-14T08:46:48.544Z,51.90
2018-02-14T08:49:14.808Z,52.00
2018-02-14T08:51:41.286Z,52.50
2018-02-14T08:54:08.306Z,49.70
2018-02-14T08:56:35.368Z,47.70
2018-02-14T08:59:02.487Z,47.70
2018-02-14T09:01:28.775Z,47.80
2018-02-14T09:03:55.063Z,46.70
2018-02-14T09:06:21.347Z,47.30
2018-02-14T09:08:47.630Z,47.30
2018-02-14T09:11:14.674Z,47.10
2018-02-14T09:13:41.003Z,47.00
2018-02-14T09:16:07.308Z,47.00
2018-02-14T09:18:33.601Z,46.00
2018-02-14T09:20:59.903Z,46.80
2018-02-14T09:23:26.190Z,48.50
2018-02-14T09:25:52.482Z,46.90
2018-02-14T09:28:19.496Z,43.20
2018-02-14T09:30:45.791Z,43.20
2018-02-14T09:33:12.083Z,45.20
2018-02-14T09:35:38.347Z,46.40
2018-02-14T09:38:04.627Z,45.50
2018-02-14T09:40:31.670Z,44.80
2018-02-14T09:42:57.935Z,44.70
2018-02-14T09:45:24.239Z,47.20
2018-02-14T09:47:51.274Z,47.50
2018-02-14T09:50:17.571Z,47.20
2018-02-14T09:52:43.867Z,47.20
2018-02-14T09:55:10.133Z,47.50
2018-02-14T09:57:36.423Z,46.00
2018-02-14T10:00:02.958Z,42.90
2018-02-14T10:02:29.211Z,43.20
2018-02-14T10:04:55.490Z,44.00
2018-02-14T10:07:21.783Z,43.30
2018-02-14T10:09:48.082Z,44.00
2018-02-14T10:12:14.380Z,43.10
2018-02-14T10:14:41.442Z,41.90
2018-02-14T10:17:08.486Z,41.10
2018-02-14T10:19:35.527Z,40.80
2018-02-14T10:22:01.862Z,41.10
2018-02-14T10:24:28.170Z,41.10
2018-02-14T10:26:55.214Z,42.70
2018-02-14T10:29:21.519Z,42.60
2018-02-14T10:31:47.836Z,41.40
2018-02-14T10:34:14.179Z,41.70
2018-02-14T10:36:40.446Z,41.70
2018-02-14T10:39:07.475Z,40.00
2018-02-14T10:41:33.738Z,39.60
2018-02-14T10:44:00.780Z,39.30
2018-02-14T10:46:27.089Z,39.50
2018-02-14T10:48:53.376Z,38.70
2018-02-14T10:51:19.675Z,41.30
2018-02-14T10:53:45.963Z,41.00
2018-02-14T10:56:12.235Z,41.30
2018-02-14T10:58:39.320Z,37.60
2018-02-14T11:01:05.660Z,37.70
2018-02-14T11:03:44.790Z,37.00
2018-02-14T11:06:12.098Z,39.00
2018-02-14T11:08:38.384Z,40.40
2018-02-14T11:11:04.671Z,40.10
2018-02-14T11:13:31.710Z,38.10
2018-02-14T11:15:58.017Z,37.60
2018-02-14T11:18:24.313Z,37.90
2018-02-14T11:20:50.606Z,37.80
2018-02-14T11:23:16.901Z,38.80
2018-02-14T11:25:43.232Z,38.90
2018-02-14T11:28:09.511Z,38.10
2018-02-14T11:30:35.814Z,38.30
2018-02-14T11:33:02.099Z,39.20
2018-02-14T11:35:29.247Z,38.20
2018-02-14T11:37:55.552Z,38.20
2018-02-14T11:40:21.836Z,38.20
2018-02-14T11:42:48.124Z,38.10
2018-02-14T11:45:14.496Z,38.20
2018-02-14T11:47:40.795Z,37.50
2018-02-14T11:50:07.072Z,36.50
2018-02-14T11:52:33.419Z,36.90
2018-02-14T11:54:59.688Z,35.20
2018-02-14T11:57:25.980Z,36.70
2018-02-14T11:59:53.038Z,37.00
2018-02-14T12:02:20.039Z,37.40
2018-02-14T12:04:46.355Z,37.50
2018-02-14T12:07:12.662Z,36.80
2018-02-14T12:09:38.979Z,37.20
2018-02-14T12:12:06.054Z,37.70
2018-02-14T12:14:32.314Z,37.60
2018-02-14T12:16:58.623Z,37.00
2018-02-14T12:19:24.960Z,38.20
2018-02-14T12:21:51.259Z,37.60
2018-02-14T12:24:17.568Z,37.60
2018-02-14T12:26:43.899Z,37.20
2018-02-14T12:29:10.980Z,37.40
2018-02-14T12:31:37.326Z,37.50
2018-02-14T12:34:03.628Z,37.00
2018-02-14T12:36:29.930Z,36.50
2018-02-14T12:38:56.975Z,36.30
2018-02-14T12:41:23.277Z,36.00
2018-02-14T12:43:49.587Z,36.60
2018-02-14T12:46:15.875Z,36.50
2018-02-14T12:48:42.953Z,35.50
2018-02-14T12:51:09.336Z,35.40
2018-02-14T12:53:36.394Z,35.70
2018-02-14T12:56:03.462Z,36.10
2018-02-14T12:58:29.774Z,35.70
2018-02-14T13:00:56.045Z,35.80
2018-02-14T13:03:22.326Z,35.90
2018-02-14T13:05:48.646Z,35.20
2018-02-14T13:08:14.947Z,34.50
2018-02-14T13:10:41.228Z,33.30
2018-02-14T13:13:07.512Z,31.70
2018-02-14T13:15:33.807Z,32.30
2018-02-14T13:18:00.099Z,32.70
2018-02-14T13:20:26.416Z,31.50
2018-02-14T13:22:52.689Z,31.30
2018-02-14T13:25:19.711Z,31.10
2018-02-14T13:27:46.065Z,31.10
2018-02-14T13:30:12.355Z,30.20
2018-02-14T13:32:38.660Z,30.30
2018-02-14T13:35:04.987Z,30.00
2018-02-14T13:37:31.325Z,29.60
2018-02-14T13:39:57.606Z,30.20
2018-02-14T13:42:24.628Z,31.10
2018-02-14T13:44:50.959Z,31.10
2018-02-14T13:47:17.264Z,31.10
2018-02-14T13:49:43.547Z,29.90
2018-02-14T13:52:10.585Z,29.60
2018-02-14T13:54:36.891Z,29.60
2018-02-14T13:57:03.240Z,29.30
2018-02-14T13:59:30.320Z,29.40
2018-02-14T14:01:56.632Z,29.40
2018-02-14T14:04:22.903Z,28.40
2018-02-14T14:06:49.191Z,28.30
2018-02-14T14:09:15.466Z,27.80
2018-02-14T14:11:41.774Z,27.30
2018-02-14T14:14:08.818Z,28.60
2018-02-14T14:16:35.847Z,28.70
2018-02-14T14:19:02.158Z,28.40
2018-02-14T14:21:28.438Z,29.20
2018-02-14T14:23:54.732Z,29.20
2018-02-14T14:26:21.038Z,29.80
2018-02-14T14:28:47.347Z,29.50
2018-02-14T14:31:13.615Z,29.20
2018-02-14T14:33:39.981Z,29.50
2018-02-14T14:36:07.006Z,29.10
2018-02-14T14:38:33.304Z,29.00
2018-02-14T14:40:59.588Z,29.40
2018-02-14T14:43:26.593Z,29.50
2018-02-14T14:45:52.927Z,29.40
2018-02-14T14:48:19.228Z,29.80
2018-02-14T14:50:45.504Z,29.40
2018-02-14T14:53:11.801Z,29.00
2018-02-14T14:55:38.131Z,28.70
2018-02-14T14:58:05.649Z,27.60
2018-02-14T15:00:31.965Z,28.20
2018-02-14T15:02:59.016Z,28.80
2018-02-14T15:05:26.054Z,28.80
2018-02-14T15:07:53.115Z,28.40
2018-02-14T15:10:20.157Z,28.50
2018-02-14T15:12:46.552Z,28.40
2018-02-14T15:15:12.939Z,28.40
2018-02-14T15:17:39.319Z,28.60
2018-02-14T15:20:05.588Z,28.80
2018-02-14T15:22:32.623Z,28.00
2018-02-14T15:24:59.654Z,29.10
2018-02-14T15:27:25.935Z,28.40
2018-02-14T15:29:52.247Z,28.70
2018-02-14T15:32:19.286Z,29.70
2018-02-14T15:34:46.323Z,29.80
2018-02-14T15:37:12.625Z,29.80
2018-02-14T15:39:38.948Z,29.60
2018-02-14T15:42:05.264Z,29.40
2018-02-14T15:44:31.548Z,29.90
2018-02-14T15:46:57.887Z,29.50
2018-02-14T15:49:24.143Z,29.30
2018-02-14T15:51:50.486Z,29.70
2018-02-14T15:54:16.755Z,29.90
2018-02-14T15:56:43.099Z,30.30
2018-02-14T15:59:09.403Z,31.00
2018-02-14T16:01:35.700Z,30.90
2018-02-14T16:04:02.007Z,30.60
2018-02-14T16:06:29.003Z,31.00
2018-02-14T16:08:55.298Z,31.10
2018-02-14T16:11:21.589Z,31.70
2018-02-14T16:13:47.892Z,31.80
2018-02-14T16:16:14.850Z,31.40
2018-02-14T16:18:41.145Z,31.30
2018-02-14T16:21:07.443Z,31.80
2018-02-14T16:23:34.495Z,32.70
2018-02-14T16:26:01.538Z,33.50
2018-02-14T16:28:28.547Z,33.30
2018-02-14T16:30:54.842Z,33.60
2018-02-14T16:33:21.138Z,33.50
2018-02-14T16:35:47.424Z,33.90
2018-02-14T16:38:13.726Z,34.50
2018-02-14T16:40:40.762Z,35.20
2018-02-14T16:43:07.802Z,35.70
2018-02-14T16:45:34.859Z,35.80
2018-02-14T16:48:01.917Z,35.80
2018-02-14T16:50:28.215Z,35.00
2018-02-14T16:52:54.531Z,36.40
2018-02-14T16:55:20.823Z,36.50
2018-02-14T16:57:47.133Z,37.10
2018-02-14T17:00:13.505Z,37.20
2018-02-14T17:02:39.803Z,37.20
2018-02-14T17:05:06.113Z,37.60
2018-02-14T17:07:33.140Z,37.60
2018-02-14T17:09:59.413Z,38.00
2018-02-14T17:12:26.456Z,38.40
2018-02-14T17:14:53.495Z,38.20
2018-02-14T17:17:20.504Z,38.50
2018-02-14T17:19:46.801Z,38.60
2018-02-14T17:22:13.095Z,38.50
2018-02-14T17:24:40.120Z,38.80
2018-02-14T17:27:06.438Z,38.80
2018-02-14T17:29:32.718Z,39.00
2018-02-14T17:31:59.054Z,39.20
2018-02-14T17:34:26.122Z,39.20
2018-02-14T17:36:52.441Z,39.20
2018-02-14T17:39:18.858Z,39.60
2018-02-14T17:41:45.877Z,39.80
2018-02-14T17:44:12.215Z,39.60
2018-02-14T17:46:38.476Z,39.80
2018-02-14T17:49:04.773Z,40.60
2018-02-14T17:51:31.059Z,40.70
2018-02-14T17:53:57.345Z,40.80
2018-02-14T17:56:24.388Z,41.70
2018-02-14T17:58:51.471Z,41.90
2018-02-14T18:01:17.787Z,41.50
2018-02-14T18:03:44.067Z,42.20
2018-02-14T18:06:10.355Z,42.80
2018-02-14T18:08:36.645Z,42.50
2018-02-14T18:11:03.639Z,42.30
2018-02-14T18:13:29.948Z,42.20
2018-02-14T18:15:56.240Z,42.80
2018-02-14T18:18:22.549Z,42.60
2018-02-14T18:20:48.844Z,43.20
2018-02-14T18:23:15.151Z,43.10
2018-02-14T18:25:41.455Z,43.30
2018-02-14T18:28:07.775Z,43.20
2018-02-14T18:30:34.071Z,43.20
2018-02-14T18:33:00.389Z,43.20
2018-02-14T18:35:27.435Z,43.90
2018-02-14T18:37:54.471Z,43.30
2018-02-14T18:40:20.764Z,43.30
2018-02-14T18:42:47.052Z,43.40
2018-02-14T18:45:13.337Z,43.70
2018-02-14T18:47:39.622Z,44.10
2018-02-14T18:50:05.907Z,44.30
2018-02-14T18:52:32.216Z,44.70
2018-02-14T18:54:58.515Z,44.80
2018-02-14T18:57:24.826Z,45.00
2018-02-14T18:59:51.880Z,45.20
2018-02-14T19:02:18.212Z,45.00
2018-02-14T19:04:44.518Z,45.30
2018-02-14T19:07:10.834Z,45.30
2018-02-14T19:09:37.160Z,45.50
2018-02-14T19:12:03.435Z,45.50
2018-02-14T19:14:29.739Z,45.80
2018-02-14T19:16:56.003Z,46.20
2018-02-14T19:19:22.297Z,45.70
2018-02-14T19:21:48.602Z,45.50
2018-02-14T19:24:14.906Z,46.20
2018-02-14T19:26:41.263Z,46.00
2018-02-14T19:29:07.536Z,46.30
2018-02-14T19:31:34.579Z,46.50
2018-02-14T19:34:01.632Z,46.60
2018-02-14T19:36:28.668Z,46.60
2018-02-14T19:38:54.940Z,46.70
2018-02-14T19:41:21.251Z,47.10
2018-02-14T19:43:47.523Z,46.90
2018-02-14T19:46:13.831Z,46.50
2018-02-14T19:48:40.125Z,46.30
2018-02-14T19:51:07.162Z,46.50
2018-02-14T19:53:33.469Z,46.30
2018-02-14T19:55:59.743Z,46.00
2018-02-14T19:58:26.771Z,46.60
2018-02-14T20:00:53.833Z,46.80
2018-02-14T20:03:20.867Z,46.60
2018-02-14T20:05:47.959Z,46.90
2018-02-14T20:08:14.237Z,46.80
2018-02-14T20:10:40.543Z,47.00
2018-02-14T20:13:06.831Z,47.60
2018-02-14T20:15:33.135Z,47.70
2018-02-14T20:17:59.404Z,48.40
2018-02-14T20:20:25.738Z,48.30
2018-02-14T20:22:52.025Z,48.30
2018-02-14T20:25:19.099Z,48.90
2018-02-14T20:27:46.096Z,48.70
2018-02-14T20:30:12.395Z,48.60
2018-02-14T20:32:38.700Z,49.00
2018-02-14T20:35:05.060Z,49.00
2018-02-14T20:37:38.407Z,49.20
2018-02-14T20:40:04.708Z,49.10
2018-02-14T20:42:31.083Z,50.00
2018-02-14T20:44:58.111Z,49.10
2018-02-14T20:47:24.645Z,49.20
2018-02-14T20:49:50.928Z,49.60
2018-02-14T20:52:17.215Z,49.80
2018-02-14T20:54:44.287Z,51.30
2018-02-14T20:57:11.309Z,50.70
2018-02-14T20:59:38.419Z,50.10
2018-02-14T21:02:04.703Z,50.00
2018-02-14T21:04:31.751Z,51.10
2018-02-14T21:06:58.813Z,50.50
2018-02-14T21:09:25.096Z,50.50
2018-02-14T21:11:51.368Z,51.60
2018-02-14T21:14:18.491Z,51.20
2018-02-14T21:16:44.762Z,51.10
2018-02-14T21:19:11.053Z,51.00
2018-02-14T21:21:39.079Z,51.50
2018-02-14T21:24:05.403Z,51.30
2018-02-14T21:26:31.691Z,51.60
2018-02-14T21:28:58.721Z,51.70
2018-02-14T21:31:25.023Z,51.90
2018-02-14T21:33:51.352Z,51.60
2018-02-14T21:36:17.679Z,51.50
2018-02-14T21:38:43.943Z,52.20
2018-02-14T21:41:10.218Z,52.50
2018-02-14T21:43:36.780Z,52.40
2018-02-14T21:46:03.061Z,51.70
2018-02-14T21:48:30.103Z,51.60
2018-02-14T21:50:57.126Z,51.50
2018-02-14T21:53:23.427Z,51.30
2018-02-14T21:55:49.707Z,52.10
2018-02-14T21:58:15.972Z,51.50
2018-02-14T22:00:42.291Z,51.90
2018-02-14T22:03:09.331Z,51.70
2018-02-14T22:05:36.359Z,52.30
2018-02-14T22:08:02.726Z,52.20
2018-02-14T22:10:29.054Z,52.20
2018-02-14T22:12:56.081Z,51.60
2018-02-14T22:15:23.128Z,52.40
2018-02-14T22:17:49.411Z,52.50
2018-02-14T22:20:15.699Z,52.80
2018-02-14T22:22:42.746Z,53.50
2018-02-14T22:25:09.074Z,53.60
2018-02-14T22:27:35.476Z,53.50
2018-02-14T22:30:02.580Z,54.80
2018-02-14T22:32:29.015Z,54.50
2018-02-14T22:34:55.315Z,54.50
2018-02-14T22:37:22.433Z,55.00
2018-02-14T22:39:49.500Z,55.50
2018-02-14T22:42:16.637Z,55.20
2018-02-14T22:44:42.934Z,55.20
2018-02-14T22:47:09.227Z,56.20
2018-02-14T22:49:36.315Z,55.30
2018-02-14T22:52:02.635Z,55.40
2018-02-14T22:54:28.899Z,55.90
2018-02-14T22:56:55.171Z,55.50
2018-02-14T22:59:21.460Z,55.40
2018-02-14T23:01:47.763Z,55.50
2018-02-14T23:04:14.071Z,55.20
2018-02-14T23:06:40.350Z,55.20
2018-02-14T23:09:06.632Z,54.90
2018-02-14T23:11:33.012Z,54.90
2018-02-14T23:13:59.291Z,54.80
2018-02-14T23:16:25.566Z,54.60
2018-02-14T23:18:51.858Z,54.50
2018-02-14T23:21:18.180Z,54.60
2018-02-14T23:23:44.491Z,55.00
2018-02-14T23:26:11.514Z,55.40
2018-02-14T23:28:37.871Z,55.00
2018-02-14T23:31:04.904Z,55.40
2018-02-14T23:33:31.178Z,55.40
2018-02-14T23:35:57.467Z,55.50
2018-02-14T23:38:24.515Z,56.20
2018-02-14T23:40:50.808Z,55.60
2018-02-14T23:43:17.092Z,55.80
2018-02-14T23:45:44.114Z,55.90
2018-02-14T23:48:10.365Z,55.50
2018-02-14T23:50:37.380Z,55.90
2018-02-14T23:53:03.662Z,55.60
2018-02-14T23:55:29.940Z,55.50
2018-02-14T23:57:56.247Z,55.60
